sensor_id;sensor_type;location;lat;lon;timestamp;pressure;altitude;pressure_sealevel;temperature;humidity
74542;BME280;63015;45.378;20.360;2023-11-22T00:00:14;100187.75;;;7.55;90.12
74542;BME280;63015;45.378;20.360;2023-11-22T00:02:16;100186.84;;;7.54;89.99
74542;BME280;63015;45.378;20.360;2023-11-22T00:04:16;100188.66;;;7.65;90.01
74542;BME280;63015;45.378;20.360;2023-11-22T00:06:18;100191.25;;;7.63;89.70
74542;BME280;63015;45.378;20.360;2023-11-22T00:08:20;100195.41;;;7.43;90.41
74542;BME280;63015;45.378;20.360;2023-11-22T00:10:21;100190.28;;;7.53;90.40
74542;BME280;63015;45.378;20.360;2023-11-22T00:12:22;100195.47;;;7.53;90.13
74542;BME280;63015;45.378;20.360;2023-11-22T00:14:23;100192.94;;;7.55;90.13
74542;BME280;63015;45.378;20.360;2023-11-22T00:16:24;100194.69;;;7.59;90.59
74542;BME280;63015;45.378;20.360;2023-11-22T00:18:24;100199.75;;;7.42;90.19
74542;BME280;63015;45.378;20.360;2023-11-22T00:20:26;100199.97;;;7.76;90.29
74542;BME280;63015;45.378;20.360;2023-11-22T00:22:27;100196.47;;;7.69;90.01
74542;BME280;63015;45.378;20.360;2023-11-22T00:24:28;100195.69;;;7.78;89.21
74542;BME280;63015;45.378;20.360;2023-11-22T00:26:28;100198.19;;;7.67;88.98
74542;BME280;63015;45.378;20.360;2023-11-22T00:28:33;100198.19;;;7.67;89.64
74542;BME280;63015;45.378;20.360;2023-11-22T00:30:35;100204.28;;;7.74;88.84
74542;BME280;63015;45.378;20.360;2023-11-22T00:32:36;100199.81;;;7.51;89.59
74542;BME280;63015;45.378;20.360;2023-11-22T00:34:38;100205.00;;;7.51;90.36
74542;BME280;63015;45.378;20.360;2023-11-22T00:36:38;100199.88;;;7.59;89.99
74542;BME280;63015;45.378;20.360;2023-11-22T00:38:39;100194.84;;;7.82;89.40
74542;BME280;63015;45.378;20.360;2023-11-22T00:40:39;100205.06;;;7.64;89.00
74542;BME280;63015;45.378;20.360;2023-11-22T00:42:40;100202.69;;;7.88;88.75
74542;BME280;63015;45.378;20.360;2023-11-22T00:44:44;100206.03;;;7.77;88.90
74542;BME280;63015;45.378;20.360;2023-11-22T00:46:45;100200.88;;;7.81;88.67
74542;BME280;63015;45.378;20.360;2023-11-22T00:48:46;100206.88;;;7.71;88.59
74542;BME280;63015;45.378;20.360;2023-11-22T00:50:46;100203.25;;;7.52;90.01
74542;BME280;63015;45.378;20.360;2023-11-22T00:52:48;100201.63;;;7.63;89.76
74542;BME280;63015;45.378;20.360;2023-11-22T00:54:49;100193.00;;;7.67;89.25
74542;BME280;63015;45.378;20.360;2023-11-22T00:56:50;100189.59;;;7.76;89.20
74542;BME280;63015;45.378;20.360;2023-11-22T00:58:51;100190.41;;;7.63;88.92
74542;BME280;63015;45.378;20.360;2023-11-22T01:00:53;100191.25;;;7.60;89.83
74542;BME280;63015;45.378;20.360;2023-11-22T01:02:54;100187.81;;;7.66;89.67
74542;BME280;63015;45.378;20.360;2023-11-22T01:04:54;100178.22;;;7.55;90.10
74542;BME280;63015;45.378;20.360;2023-11-22T01:06:57;100192.94;;;7.56;90.33
74542;BME280;63015;45.378;20.360;2023-11-22T01:09:00;100196.31;;;7.51;90.12
74542;BME280;63015;45.378;20.360;2023-11-22T01:11:01;100205.91;;;7.61;89.82
74542;BME280;63015;45.378;20.360;2023-11-22T01:13:03;100201.66;;;7.68;89.80
74542;BME280;63015;45.378;20.360;2023-11-22T01:15:05;100198.13;;;7.60;89.60
74542;BME280;63015;45.378;20.360;2023-11-22T01:17:06;100203.13;;;7.36;90.50
74542;BME280;63015;45.378;20.360;2023-11-22T01:19:07;100201.31;;;7.26;91.14
74542;BME280;63015;45.378;20.360;2023-11-22T01:21:09;100204.16;;;7.55;90.96
74542;BME280;63015;45.378;20.360;2023-11-22T01:23:10;100202.25;;;7.34;90.99
74542;BME280;63015;45.378;20.360;2023-11-22T01:25:11;100204.81;;;7.30;91.19
74542;BME280;63015;45.378;20.360;2023-11-22T01:27:12;100205.84;;;7.49;90.91
74542;BME280;63015;45.378;20.360;2023-11-22T01:29:12;100202.28;;;7.36;90.66
74542;BME280;63015;45.378;20.360;2023-11-22T01:31:13;100201.34;;;7.29;91.31
74542;BME280;63015;45.378;20.360;2023-11-22T01:33:14;100205.72;;;7.33;91.31
74542;BME280;63015;45.378;20.360;2023-11-22T01:35:15;100209.00;;;7.18;91.52
74542;BME280;63015;45.378;20.360;2023-11-22T01:37:16;100203.09;;;7.32;91.77
74542;BME280;63015;45.378;20.360;2023-11-22T01:39:16;100210.06;;;7.39;91.76
74542;BME280;63015;45.378;20.360;2023-11-22T01:41:17;100207.53;;;7.44;91.06
74542;BME280;63015;45.378;20.360;2023-11-22T01:43:19;100209.28;;;7.51;91.08
74542;BME280;63015;45.378;20.360;2023-11-22T01:45:19;100210.25;;;7.64;90.32
74542;BME280;63015;45.378;20.360;2023-11-22T01:47:21;100208.34;;;7.39;89.83
74542;BME280;63015;45.378;20.360;2023-11-22T01:49:22;100209.09;;;7.26;91.27
74542;BME280;63015;45.378;20.360;2023-11-22T01:51:24;100211.69;;;7.26;91.57
74542;BME280;63015;45.378;20.360;2023-11-22T01:53:25;100213.34;;;7.16;91.68
74542;BME280;63015;45.378;20.360;2023-11-22T01:55:27;100214.41;;;7.43;91.45
74542;BME280;63015;45.378;20.360;2023-11-22T01:57:27;100218.81;;;7.52;90.80
74542;BME280;63015;45.378;20.360;2023-11-22T01:59:29;100217.84;;;7.40;90.69
74542;BME280;63015;45.378;20.360;2023-11-22T02:01:32;100214.25;;;7.23;91.19
74542;BME280;63015;45.378;20.360;2023-11-22T02:03:32;100219.56;;;7.38;91.12
74542;BME280;63015;45.378;20.360;2023-11-22T02:05:33;100216.84;;;7.24;90.98
74542;BME280;63015;45.378;20.360;2023-11-22T02:07:33;100221.19;;;7.27;91.31
74542;BME280;63015;45.378;20.360;2023-11-22T02:09:34;100219.28;;;7.09;91.47
74542;BME280;63015;45.378;20.360;2023-11-22T02:11:35;100224.69;;;7.29;91.80
74542;BME280;63015;45.378;20.360;2023-11-22T02:13:35;100221.03;;;7.10;91.48
74542;BME280;63015;45.378;20.360;2023-11-22T02:15:37;100232.25;;;7.11;91.31
74542;BME280;63015;45.378;20.360;2023-11-22T02:17:38;100229.72;;;7.14;91.25
74542;BME280;63015;45.378;20.360;2023-11-22T02:19:39;100232.31;;;7.15;91.70
74542;BME280;63015;45.378;20.360;2023-11-22T02:21:40;100226.16;;;7.07;91.55
74542;BME280;63015;45.378;20.360;2023-11-22T02:23:41;100223.84;;;7.32;90.81
74542;BME280;63015;45.378;20.360;2023-11-22T02:25:42;100231.56;;;7.29;90.83
74542;BME280;63015;45.378;20.360;2023-11-22T02:27:43;100225.69;;;7.47;90.30
74542;BME280;63015;45.378;20.360;2023-11-22T02:29:43;100234.09;;;7.19;90.31
74542;BME280;63015;45.378;20.360;2023-11-22T02:31:44;100226.16;;;7.04;91.02
74542;BME280;63015;45.378;20.360;2023-11-22T02:33:45;100230.44;;;7.02;91.00
74542;BME280;63015;45.378;20.360;2023-11-22T02:35:46;100229.66;;;7.07;91.91
74542;BME280;63015;45.378;20.360;2023-11-22T02:37:46;100218.28;;;6.95;91.65
74542;BME280;63015;45.378;20.360;2023-11-22T02:39:58;100234.59;;;6.87;91.96
74542;BME280;63015;45.378;20.360;2023-11-22T02:42:01;100230.28;;;6.86;91.84
74542;BME280;63015;45.378;20.360;2023-11-22T02:44:04;100235.78;;;7.16;91.68
74542;BME280;63015;45.378;20.360;2023-11-22T02:46:08;100242.44;;;6.94;91.23
74542;BME280;63015;45.378;20.360;2023-11-22T02:48:09;100245.13;;;7.01;91.67
74542;BME280;63015;45.378;20.360;2023-11-22T02:50:10;100242.38;;;6.87;92.06
74542;BME280;63015;45.378;20.360;2023-11-22T02:52:11;100239.19;;;7.12;91.30
74542;BME280;63015;45.378;20.360;2023-11-22T02:54:14;100246.81;;;6.96;91.07
74542;BME280;63015;45.378;20.360;2023-11-22T02:56:15;100235.81;;;7.20;91.24
74542;BME280;63015;45.378;20.360;2023-11-22T02:58:16;100245.97;;;7.00;90.72
74542;BME280;63015;45.378;20.360;2023-11-22T03:00:17;100245.03;;;6.90;91.44
74542;BME280;63015;45.378;20.360;2023-11-22T03:02:19;100240.78;;;7.00;91.58
74542;BME280;63015;45.378;20.360;2023-11-22T03:04:19;100242.53;;;7.03;90.76
74542;BME280;63015;45.378;20.360;2023-11-22T03:06:20;100239.16;;;7.08;91.20
74542;BME280;63015;45.378;20.360;2023-11-22T03:08:20;100241.44;;;6.78;91.14
74542;BME280;63015;45.378;20.360;2023-11-22T03:10:21;100234.00;;;7.13;91.60
74542;BME280;63015;45.378;20.360;2023-11-22T03:12:22;100238.34;;;7.16;90.79
74542;BME280;63015;45.378;20.360;2023-11-22T03:14:23;100244.81;;;6.73;91.44
74542;BME280;63015;45.378;20.360;2023-11-22T03:16:24;100244.78;;;6.72;91.93
74542;BME280;63015;45.378;20.360;2023-11-22T03:18:24;100249.16;;;6.76;92.26
74542;BME280;63015;45.378;20.360;2023-11-22T03:20:26;100249.31;;;6.88;92.45
74542;BME280;63015;45.378;20.360;2023-11-22T03:22:27;100254.28;;;6.71;92.20
74542;BME280;63015;45.378;20.360;2023-11-22T03:24:31;100245.13;;;7.03;92.22
74542;BME280;63015;45.378;20.360;2023-11-22T03:26:34;100248.50;;;6.94;91.91
74542;BME280;63015;45.378;20.360;2023-11-22T03:28:35;100251.97;;;6.96;91.48
74542;BME280;63015;45.378;20.360;2023-11-22T03:30:35;100250.97;;;6.82;91.17
74542;BME280;63015;45.378;20.360;2023-11-22T03:32:39;100254.41;;;6.82;91.80
74542;BME280;63015;45.378;20.360;2023-11-22T03:34:40;100263.94;;;6.86;91.63
74542;BME280;63015;45.378;20.360;2023-11-22T03:36:41;100263.09;;;6.86;91.63
74542;BME280;63015;45.378;20.360;2023-11-22T03:38:41;100265.53;;;6.73;91.74
74542;BME280;63015;45.378;20.360;2023-11-22T03:40:42;100266.34;;;6.71;91.94
74542;BME280;63015;45.378;20.360;2023-11-22T03:42:42;100276.56;;;6.58;92.49
74542;BME280;63015;45.378;20.360;2023-11-22T03:44:43;100282.78;;;6.73;92.44
74542;BME280;63015;45.378;20.360;2023-11-22T03:46:44;100271.78;;;6.91;92.44
74542;BME280;63015;45.378;20.360;2023-11-22T03:48:45;100278.41;;;6.67;92.11
74542;BME280;63015;45.378;20.360;2023-11-22T03:50:45;100279.41;;;6.79;92.70
74542;BME280;63015;45.378;20.360;2023-11-22T03:52:46;100284.44;;;6.65;92.57
74542;BME280;63015;45.378;20.360;2023-11-22T03:54:47;100282.81;;;6.74;92.55
74542;BME280;63015;45.378;20.360;2023-11-22T03:56:47;100280.94;;;6.63;92.66
74542;BME280;63015;45.378;20.360;2023-11-22T03:58:48;100286.03;;;6.56;92.90
74542;BME280;63015;45.378;20.360;2023-11-22T04:00:51;100284.25;;;6.51;93.34
74542;BME280;63015;45.378;20.360;2023-11-22T04:02:52;100288.72;;;6.64;93.36
74542;BME280;63015;45.378;20.360;2023-11-22T04:04:54;100293.38;;;6.91;92.83
74542;BME280;63015;45.378;20.360;2023-11-22T04:06:54;100296.59;;;6.72;92.34
74542;BME280;63015;45.378;20.360;2023-11-22T04:08:55;100290.66;;;6.82;92.33
74542;BME280;63015;45.378;20.360;2023-11-22T04:10:56;100299.47;;;6.95;91.83
74542;BME280;63015;45.378;20.360;2023-11-22T04:12:56;100294.97;;;6.80;91.57
74542;BME280;63015;45.378;20.360;2023-11-22T04:14:57;100298.41;;;6.79;92.09
74542;BME280;63015;45.378;20.360;2023-11-22T04:16:58;100314.88;;;6.83;92.74
74542;BME280;63015;45.378;20.360;2023-11-22T04:18:58;100308.88;;;6.88;92.56
74542;BME280;63015;45.378;20.360;2023-11-22T04:20:59;100309.97;;;7.07;91.43
74542;BME280;63015;45.378;20.360;2023-11-22T04:23:01;100311.50;;;6.90;91.78
74542;BME280;63015;45.378;20.360;2023-11-22T04:25:02;100312.47;;;7.00;91.32
74542;BME280;63015;45.378;20.360;2023-11-22T04:27:02;100305.63;;;7.03;91.50
74542;BME280;63015;45.378;20.360;2023-11-22T04:29:03;100314.19;;;6.98;91.41
74542;BME280;63015;45.378;20.360;2023-11-22T04:31:04;100306.72;;;6.55;91.88
74542;BME280;63015;45.378;20.360;2023-11-22T04:33:05;100312.81;;;6.58;92.94
74542;BME280;63015;45.378;20.360;2023-11-22T04:35:06;100310.56;;;6.85;92.68
74542;BME280;63015;45.378;20.360;2023-11-22T04:37:07;100306.00;;;6.65;92.41
74542;BME280;63015;45.378;20.360;2023-11-22T04:39:08;100307.03;;;6.77;92.75
74542;BME280;63015;45.378;20.360;2023-11-22T04:41:10;100303.78;;;6.93;91.95
74542;BME280;63015;45.378;20.360;2023-11-22T04:43:11;100317.56;;;6.90;91.41
74542;BME280;63015;45.378;20.360;2023-11-22T04:45:11;100326.09;;;6.83;91.61
74542;BME280;63015;45.378;20.360;2023-11-22T04:47:13;100335.34;;;6.64;92.44
74542;BME280;63015;45.378;20.360;2023-11-22T04:49:13;100332.72;;;6.61;92.92
74542;BME280;63015;45.378;20.360;2023-11-22T04:51:14;100333.75;;;6.74;92.80
74542;BME280;63015;45.378;20.360;2023-11-22T04:53:19;100335.69;;;6.90;92.33
74542;BME280;63015;45.378;20.360;2023-11-22T04:55:19;100340.16;;;7.02;91.67
74542;BME280;63015;45.378;20.360;2023-11-22T04:57:20;100344.25;;;6.85;91.19
74542;BME280;63015;45.378;20.360;2023-11-22T04:59:20;100344.13;;;6.75;91.74
74542;BME280;63015;45.378;20.360;2023-11-22T05:01:21;100341.09;;;7.09;91.70
74542;BME280;63015;45.378;20.360;2023-11-22T05:03:22;100351.16;;;6.86;91.93
74542;BME280;63015;45.378;20.360;2023-11-22T05:05:24;100344.25;;;6.86;92.02
74542;BME280;63015;45.378;20.360;2023-11-22T05:07:25;100351.97;;;6.80;91.52
74542;BME280;63015;45.378;20.360;2023-11-22T05:09:25;100349.59;;;7.00;91.11
74542;BME280;63015;45.378;20.360;2023-11-22T05:11:26;100355.78;;;7.10;90.68
74542;BME280;63015;45.378;20.360;2023-11-22T05:13:26;100353.84;;;6.92;90.82
74542;BME280;63015;45.378;20.360;2023-11-22T05:15:27;100354.03;;;7.09;90.60
74542;BME280;63015;45.378;20.360;2023-11-22T05:17:28;100360.16;;;7.14;90.19
74542;BME280;63015;45.378;20.360;2023-11-22T05:19:29;100364.50;;;7.18;89.78
74542;BME280;63015;45.378;20.360;2023-11-22T05:21:30;100362.56;;;6.99;90.05
74542;BME280;63015;45.378;20.360;2023-11-22T05:23:31;100365.31;;;7.11;89.74
74542;BME280;63015;45.378;20.360;2023-11-22T05:25:37;100362.81;;;7.20;89.89
74542;BME280;63015;45.378;20.360;2023-11-22T05:27:38;100355.91;;;7.19;89.85
74542;BME280;63015;45.378;20.360;2023-11-22T05:29:38;100362.00;;;7.26;89.38
74542;BME280;63015;45.378;20.360;2023-11-22T05:31:39;100359.88;;;6.91;90.26
74542;BME280;63015;45.378;20.360;2023-11-22T05:33:40;100361.81;;;7.09;90.62
74542;BME280;63015;45.378;20.360;2023-11-22T05:35:40;100359.44;;;6.58;91.62
74542;BME280;63015;45.378;20.360;2023-11-22T05:37:41;100367.31;;;6.66;92.79
74542;BME280;63015;45.378;20.360;2023-11-22T05:39:42;100370.41;;;7.05;91.92
74542;BME280;63015;45.378;20.360;2023-11-22T05:41:43;100374.59;;;6.97;91.34
74542;BME280;63015;45.378;20.360;2023-11-22T05:43:44;100380.38;;;6.74;91.66
74542;BME280;63015;45.378;20.360;2023-11-22T05:45:44;100388.03;;;6.66;91.99
74542;BME280;63015;45.378;20.360;2023-11-22T05:47:49;100396.75;;;6.73;92.19
74542;BME280;63015;45.378;20.360;2023-11-22T05:49:50;100389.25;;;6.93;91.79
74542;BME280;63015;45.378;20.360;2023-11-22T05:51:51;100393.88;;;7.17;90.57
74542;BME280;63015;45.378;20.360;2023-11-22T05:53:51;100401.09;;;6.75;90.50
74542;BME280;63015;45.378;20.360;2023-11-22T05:55:52;100394.97;;;6.69;91.58
74542;BME280;63015;45.378;20.360;2023-11-22T05:57:53;100400.19;;;6.73;91.48
74542;BME280;63015;45.378;20.360;2023-11-22T05:59:53;100393.81;;;6.48;91.78
74542;BME280;63015;45.378;20.360;2023-11-22T06:01:54;100396.50;;;6.56;91.98
74542;BME280;63015;45.378;20.360;2023-11-22T06:03:55;100403.78;;;6.80;91.67
74542;BME280;63015;45.378;20.360;2023-11-22T06:05:55;100399.41;;;6.78;91.34
74542;BME280;63015;45.378;20.360;2023-11-22T06:07:57;100406.38;;;6.82;91.26
74542;BME280;63015;45.378;20.360;2023-11-22T06:09:58;100399.44;;;6.81;90.96
74542;BME280;63015;45.378;20.360;2023-11-22T06:11:59;100406.91;;;6.59;91.44
74542;BME280;63015;45.378;20.360;2023-11-22T06:13:59;100411.50;;;6.79;91.38
74542;BME280;63015;45.378;20.360;2023-11-22T06:16:00;100412.44;;;6.84;91.51
74542;BME280;63015;45.378;20.360;2023-11-22T06:18:00;100424.53;;;6.85;91.29
74542;BME280;63015;45.378;20.360;2023-11-22T06:20:01;100418.97;;;6.58;91.90
74542;BME280;63015;45.378;20.360;2023-11-22T06:22:04;100427.97;;;6.84;91.63
74542;BME280;63015;45.378;20.360;2023-11-22T06:24:05;100439.97;;;6.79;91.35
74542;BME280;63015;45.378;20.360;2023-11-22T06:26:08;100441.13;;;6.99;91.09
74542;BME280;63015;45.378;20.360;2023-11-22T06:28:09;100444.84;;;6.57;91.46
74542;BME280;63015;45.378;20.360;2023-11-22T06:30:10;100453.84;;;6.81;91.93
74542;BME280;63015;45.378;20.360;2023-11-22T06:32:11;100452.03;;;6.75;91.84
74542;BME280;63015;45.378;20.360;2023-11-22T06:34:11;100462.44;;;6.78;91.51
74542;BME280;63015;45.378;20.360;2023-11-22T06:36:12;100464.44;;;6.98;91.12
74542;BME280;63015;45.378;20.360;2023-11-22T06:38:14;100473.66;;;6.79;91.18
74542;BME280;63015;45.378;20.360;2023-11-22T06:40:15;100475.22;;;6.67;91.57
74542;BME280;63015;45.378;20.360;2023-11-22T06:42:17;100477.59;;;6.53;92.07
74542;BME280;63015;45.378;20.360;2023-11-22T06:44:19;100481.13;;;6.58;92.12
74542;BME280;63015;45.378;20.360;2023-11-22T06:46:20;100472.44;;;6.55;92.42
74542;BME280;63015;45.378;20.360;2023-11-22T06:48:21;100483.06;;;6.72;92.14
74542;BME280;63015;45.378;20.360;2023-11-22T06:50:21;100491.34;;;6.51;92.17
74542;BME280;63015;45.378;20.360;2023-11-22T06:52:22;100490.56;;;6.55;92.42
74542;BME280;63015;45.378;20.360;2023-11-22T06:54:22;100496.84;;;6.71;92.30
74542;BME280;63015;45.378;20.360;2023-11-22T06:56:23;100495.16;;;6.73;92.33
74542;BME280;63015;45.378;20.360;2023-11-22T06:58:23;100493.16;;;6.55;92.55
74542;BME280;63015;45.378;20.360;2023-11-22T07:00:24;100495.16;;;6.73;92.59
74542;BME280;63015;45.378;20.360;2023-11-22T07:02:27;100495.88;;;6.64;92.39
74542;BME280;63015;45.378;20.360;2023-11-22T07:04:28;100493.56;;;6.81;91.93
74542;BME280;63015;45.378;20.360;2023-11-22T07:06:29;100495.25;;;6.78;92.31
74542;BME280;63015;45.378;20.360;2023-11-22T07:08:30;100489.41;;;6.93;91.55
74542;BME280;63015;45.378;20.360;2023-11-22T07:10:31;100496.00;;;6.72;91.71
74542;BME280;63015;45.378;20.360;2023-11-22T07:12:34;100496.22;;;6.86;92.17
74542;BME280;63015;45.378;20.360;2023-11-22T07:14:36;100502.44;;;6.97;91.96
74542;BME280;63015;45.378;20.360;2023-11-22T07:16:36;100512.63;;;6.86;91.86
74542;BME280;63015;45.378;20.360;2023-11-22T07:18:37;100527.28;;;6.83;91.79
74542;BME280;63015;45.378;20.360;2023-11-22T07:20:38;100527.28;;;6.83;91.91
74542;BME280;63015;45.378;20.360;2023-11-22T07:22:39;100533.78;;;6.59;92.17
74542;BME280;63015;45.378;20.360;2023-11-22T07:24:44;100542.75;;;6.80;92.17
74542;BME280;63015;45.378;20.360;2023-11-22T07:26:44;100542.47;;;6.63;92.06
74542;BME280;63015;45.378;20.360;2023-11-22T07:28:45;100541.75;;;6.71;92.58
74542;BME280;63015;45.378;20.360;2023-11-22T07:30:45;100545.47;;;6.87;91.92
74542;BME280;63015;45.378;20.360;2023-11-22T07:32:50;100544.66;;;6.91;91.32
74542;BME280;63015;45.378;20.360;2023-11-22T07:34:52;100543.69;;;6.83;91.05
74542;BME280;63015;45.378;20.360;2023-11-22T07:36:56;100550.41;;;6.73;91.67
74542;BME280;63015;45.378;20.360;2023-11-22T07:38:56;100548.63;;;6.69;91.76
74542;BME280;63015;45.378;20.360;2023-11-22T07:40:58;100543.59;;;6.79;91.89
74542;BME280;63015;45.378;20.360;2023-11-22T07:42:58;100550.34;;;6.69;91.88
74542;BME280;63015;45.378;20.360;2023-11-22T07:44:59;100542.63;;;6.72;92.34
74542;BME280;63015;45.378;20.360;2023-11-22T07:46:59;100541.34;;;6.99;91.73
74542;BME280;63015;45.378;20.360;2023-11-22T07:49:00;100543.97;;;7.02;91.14
74542;BME280;63015;45.378;20.360;2023-11-22T07:51:01;100553.09;;;6.78;91.64
74542;BME280;63015;45.378;20.360;2023-11-22T07:53:01;100554.81;;;6.78;91.62
74542;BME280;63015;45.378;20.360;2023-11-22T07:55:04;100559.22;;;6.83;91.44
74542;BME280;63015;45.378;20.360;2023-11-22T07:57:08;100551.66;;;6.96;91.62
74542;BME280;63015;45.378;20.360;2023-11-22T07:59:09;100551.56;;;6.91;91.27
74542;BME280;63015;45.378;20.360;2023-11-22T08:01:11;100542.50;;;7.19;90.72
74542;BME280;63015;45.378;20.360;2023-11-22T08:03:13;100535.44;;;7.07;90.96
74542;BME280;63015;45.378;20.360;2023-11-22T08:05:16;100540.53;;;7.03;90.93
74542;BME280;63015;45.378;20.360;2023-11-22T08:07:16;100549.31;;;7.13;90.50
74542;BME280;63015;45.378;20.360;2023-11-22T08:09:17;100556.22;;;7.12;90.53
74542;BME280;63015;45.378;20.360;2023-11-22T08:11:20;100554.03;;;6.83;90.47
74542;BME280;63015;45.378;20.360;2023-11-22T08:13:21;100554.84;;;6.81;90.97
74542;BME280;63015;45.378;20.360;2023-11-22T08:15:24;100556.75;;;6.91;90.60
74542;BME280;63015;45.378;20.360;2023-11-22T08:17:25;100558.38;;;6.83;90.54
74542;BME280;63015;45.378;20.360;2023-11-22T08:19:26;100553.47;;;7.01;90.55
74542;BME280;63015;45.378;20.360;2023-11-22T08:21:27;100555.94;;;6.94;90.49
74542;BME280;63015;45.378;20.360;2023-11-22T08:23:29;100552.63;;;7.04;90.44
74542;BME280;63015;45.378;20.360;2023-11-22T08:25:31;100566.34;;;6.97;90.10
74542;BME280;63015;45.378;20.360;2023-11-22T08:27:32;100562.16;;;7.05;90.27
74542;BME280;63015;45.378;20.360;2023-11-22T08:29:32;100562.50;;;7.27;89.66
74542;BME280;63015;45.378;20.360;2023-11-22T08:31:33;100558.91;;;7.18;89.95
74542;BME280;63015;45.378;20.360;2023-11-22T08:33:37;100568.31;;;7.13;89.67
74542;BME280;63015;45.378;20.360;2023-11-22T08:35:38;100578.81;;;7.22;89.74
74542;BME280;63015;45.378;20.360;2023-11-22T08:37:40;100585.72;;;7.20;88.85
74542;BME280;63015;45.378;20.360;2023-11-22T08:39:41;100591.63;;;7.12;89.17
74542;BME280;63015;45.378;20.360;2023-11-22T08:41:42;100595.19;;;7.20;89.55
74542;BME280;63015;45.378;20.360;2023-11-22T08:43:42;100606.41;;;7.17;88.71
74542;BME280;63015;45.378;20.360;2023-11-22T08:45:43;100604.84;;;7.27;89.21
74542;BME280;63015;45.378;20.360;2023-11-22T08:47:44;100608.34;;;7.31;88.79
74542;BME280;63015;45.378;20.360;2023-11-22T08:49:46;100610.75;;;7.20;89.45
74542;BME280;63015;45.378;20.360;2023-11-22T08:51:48;100618.63;;;7.26;89.21
74542;BME280;63015;45.378;20.360;2023-11-22T08:53:49;100606.69;;;7.36;88.68
74542;BME280;63015;45.378;20.360;2023-11-22T08:55:50;100620.78;;;7.53;88.60
74542;BME280;63015;45.378;20.360;2023-11-22T08:57:51;100626.63;;;7.40;88.21
74542;BME280;63015;45.378;20.360;2023-11-22T08:59:51;100630.47;;;7.08;88.69
74542;BME280;63015;45.378;20.360;2023-11-22T09:01:52;100627.63;;;6.93;89.22
74542;BME280;63015;45.378;20.360;2023-11-22T09:03:53;100628.34;;;6.86;89.46
74542;BME280;63015;45.378;20.360;2023-11-22T09:05:53;100626.16;;;7.09;89.47
74542;BME280;63015;45.378;20.360;2023-11-22T09:07:54;100629.47;;;7.02;89.02
74542;BME280;63015;45.378;20.360;2023-11-22T09:09:55;100626.22;;;7.14;89.11
74542;BME280;63015;45.378;20.360;2023-11-22T09:11:58;100634.97;;;7.20;88.27
74542;BME280;63015;45.378;20.360;2023-11-22T09:13:59;100630.53;;;7.15;88.91
74542;BME280;63015;45.378;20.360;2023-11-22T09:16:00;100632.66;;;7.37;88.54
74542;BME280;63015;45.378;20.360;2023-11-22T09:18:01;100638.31;;;7.15;88.47
74542;BME280;63015;45.378;20.360;2023-11-22T09:20:02;100648.19;;;7.36;87.98
74542;BME280;63015;45.378;20.360;2023-11-22T09:22:04;100645.81;;;7.50;88.31
74542;BME280;63015;45.378;20.360;2023-11-22T09:24:06;100663.41;;;7.16;88.40
74542;BME280;63015;45.378;20.360;2023-11-22T09:26:07;100670.56;;;7.31;88.83
74542;BME280;63015;45.378;20.360;2023-11-22T09:28:08;100668.56;;;7.14;88.59
74542;BME280;63015;45.378;20.360;2023-11-22T09:30:09;100676.56;;;7.27;88.74
74542;BME280;63015;45.378;20.360;2023-11-22T09:32:18;100683.59;;;7.35;88.38
74542;BME280;63015;45.378;20.360;2023-11-22T09:34:18;100675.88;;;7.38;87.86
74542;BME280;63015;45.378;20.360;2023-11-22T09:36:20;100678.38;;;7.32;88.08
74542;BME280;63015;45.378;20.360;2023-11-22T09:38:20;100676.06;;;7.51;87.27
74542;BME280;63015;45.378;20.360;2023-11-22T09:40:24;100679.69;;;7.61;86.57
74542;BME280;63015;45.378;20.360;2023-11-22T09:42:27;100674.38;;;7.54;86.38
74542;BME280;63015;45.378;20.360;2023-11-22T09:44:28;100675.53;;;7.72;86.53
74542;BME280;63015;45.378;20.360;2023-11-22T09:46:28;100669.97;;;7.47;86.91
74542;BME280;63015;45.378;20.360;2023-11-22T09:48:31;100664.97;;;7.61;86.95
74542;BME280;63015;45.378;20.360;2023-11-22T09:52:36;100661.53;;;7.62;85.83
74542;BME280;63015;45.378;20.360;2023-11-22T09:54:38;100655.72;;;7.79;85.88
74542;BME280;63015;45.378;20.360;2023-11-22T09:56:40;100660.19;;;7.87;86.44
74542;BME280;63015;45.378;20.360;2023-11-22T09:58:42;100657.84;;;7.45;86.86
74542;BME280;63015;45.378;20.360;2023-11-22T10:00:45;100654.69;;;7.67;86.94
74542;BME280;63015;45.378;20.360;2023-11-22T10:02:47;100665.13;;;7.70;86.94
74542;BME280;63015;45.378;20.360;2023-11-22T10:04:48;100655.63;;;7.72;86.17
74542;BME280;63015;45.378;20.360;2023-11-22T10:06:49;100661.97;;;7.93;85.86
74542;BME280;63015;45.378;20.360;2023-11-22T10:08:50;100661.03;;;7.88;85.85
74542;BME280;63015;45.378;20.360;2023-11-22T10:10:51;100662.56;;;7.72;85.85
74542;BME280;63015;45.378;20.360;2023-11-22T10:12:57;100667.22;;;7.95;85.96
74542;BME280;63015;45.378;20.360;2023-11-22T10:15:12;100667.34;;;8.04;85.03
74542;BME280;63015;45.378;20.360;2023-11-22T10:17:12;100664.66;;;7.99;85.46
74542;BME280;63015;45.378;20.360;2023-11-22T10:19:17;100673.22;;;7.92;85.73
74542;BME280;63015;45.378;20.360;2023-11-22T10:23:21;100675.00;;;7.95;85.62
74542;BME280;63015;45.378;20.360;2023-11-22T10:25:29;100679.41;;;8.02;85.09
74542;BME280;63015;45.378;20.360;2023-11-22T10:27:32;100675.13;;;8.05;85.05
74542;BME280;63015;45.378;20.360;2023-11-22T10:29:33;100683.03;;;8.16;85.07
74542;BME280;63015;45.378;20.360;2023-11-22T10:31:34;100676.81;;;8.03;85.13
74542;BME280;63015;45.378;20.360;2023-11-22T10:33:41;100674.03;;;7.89;85.06
74542;BME280;63015;45.378;20.360;2023-11-22T10:35:49;100683.44;;;7.80;84.81
74542;BME280;63015;45.378;20.360;2023-11-22T10:37:52;100681.06;;;7.98;84.27